sensor_id;sensor_type;location;lat;lon;timestamp;temperature;humidity
67273;DHT22;54190;49.770;9.250;2023-12-20T08:41:31;4.10;99.90
67273;DHT22;54190;49.770;9.250;2023-12-20T08:43:57;4.10;99.90
67273;DHT22;54190;49.770;9.250;2023-12-20T08:46:23;4.10;99.90
67273;DHT22;54190;49.770;9.250;2023-12-20T08:48:48;4.20;99.90
67273;DHT22;54190;49.770;9.250;2023-12-20T08:51:14;4.20;99.90
67273;DHT22;54190;49.770;9.250;2023-12-20T08:53:40;4.30;99.90
67273;DHT22;54190;49.770;9.250;2023-12-20T08:56:05;4.30;99.90
67273;DHT22;54190;49.770;9.250;2023-12-20T08:58:31;4.30;99.90
67273;DHT22;54190;49.770;9.250;2023-12-20T09:00:57;4.40;99.90
67273;DHT22;54190;49.770;9.250;2023-12-20T09:03:23;4.40;99.90
67273;DHT22;54190;49.770;9.250;2023-12-20T09:05:48;4.40;99.90
67273;DHT22;54190;49.770;9.250;2023-12-20T09:08:14;4.40;99.90
67273;DHT22;54190;49.770;9.250;2023-12-20T09:10:39;4.50;99.90
67273;DHT22;54190;49.770;9.250;2023-12-20T09:13:05;4.50;99.90
67273;DHT22;54190;49.770;9.250;2023-12-20T09:15:31;4.50;99.90
67273;DHT22;54190;49.770;9.250;2023-12-20T09:17:56;4.50;99.90
67273;DHT22;54190;49.770;9.250;2023-12-20T09:20:22;4.50;99.90
67273;DHT22;54190;49.770;9.250;2023-12-20T09:22:49;4.50;99.90
67273;DHT22;54190;49.770;9.250;2023-12-20T09:25:14;4.50;99.90
67273;DHT22;54190;49.770;9.250;2023-12-20T09:27:41;4.60;99.90
67273;DHT22;54190;49.770;9.250;2023-12-20T09:30:07;4.60;99.90
67273;DHT22;54190;49.770;9.250;2023-12-20T09:32:33;4.60;99.90
67273;DHT22;54190;49.770;9.250;2023-12-20T09:34:58;4.60;99.90
67273;DHT22;54190;49.770;9.250;2023-12-20T09:37:27;4.60;99.90
67273;DHT22;54190;49.770;9.250;2023-12-20T09:39:53;4.60;99.90
67273;DHT22;54190;49.770;9.250;2023-12-20T09:42:26;4.60;99.90
67273;DHT22;54190;49.770;9.250;2023-12-20T09:44:53;4.60;99.90
67273;DHT22;54190;49.770;9.250;2023-12-20T09:47:20;4.70;99.90
67273;DHT22;54190;49.770;9.250;2023-12-20T09:49:49;4.70;99.90
67273;DHT22;54190;49.770;9.250;2023-12-20T09:52:16;4.70;99.90
67273;DHT22;54190;49.770;9.250;2023-12-20T09:54:44;4.80;99.90
67273;DHT22;54190;49.770;9.250;2023-12-20T09:57:10;4.70;99.90
67273;DHT22;54190;49.770;9.250;2023-12-20T09:59:36;4.80;99.90
67273;DHT22;54190;49.770;9.250;2023-12-20T10:02:04;4.80;99.90
67273;DHT22;54190;49.770;9.250;2023-12-20T10:04:35;4.80;99.90
67273;DHT22;54190;49.770;9.250;2023-12-20T10:07:02;4.80;99.90
67273;DHT22;54190;49.770;9.250;2023-12-20T10:09:31;4.90;99.90
67273;DHT22;54190;49.770;9.250;2023-12-20T10:11:58;4.90;99.90
67273;DHT22;54190;49.770;9.250;2023-12-20T10:14:24;4.90;99.90
67273;DHT22;54190;49.770;9.250;2023-12-20T10:16:50;4.90;99.90
67273;DHT22;54190;49.770;9.250;2023-12-20T10:19:19;4.90;99.90
67273;DHT22;54190;49.770;9.250;2023-12-20T10:21:45;5.00;99.90
67273;DHT22;54190;49.770;9.250;2023-12-20T10:24:17;5.00;99.90
67273;DHT22;54190;49.770;9.250;2023-12-20T10:26:42;5.00;99.90
67273;DHT22;54190;49.770;9.250;2023-12-20T10:29:08;5.00;99.90
67273;DHT22;54190;49.770;9.250;2023-12-20T10:31:36;5.00;99.90
67273;DHT22;54190;49.770;9.250;2023-12-20T10:34:02;5.10;99.90
67273;DHT22;54190;49.770;9.250;2023-12-20T10:36:30;5.10;99.90
67273;DHT22;54190;49.770;9.250;2023-12-20T10:38:57;5.10;99.90
67273;DHT22;54190;49.770;9.250;2023-12-20T10:41:28;5.10;99.90
67273;DHT22;54190;49.770;9.250;2023-12-20T10:44:01;5.10;99.90
67273;DHT22;54190;49.770;9.250;2023-12-20T10:46:29;5.10;99.90
67273;DHT22;54190;49.770;9.250;2023-12-20T10:48:58;5.10;99.90
67273;DHT22;54190;49.770;9.250;2023-12-20T10:51:24;5.10;99.90
67273;DHT22;54190;49.770;9.250;2023-12-20T10:53:53;5.10;99.90
67273;DHT22;54190;49.770;9.250;2023-12-20T10:56:19;5.20;99.90
67273;DHT22;54190;49.770;9.250;2023-12-20T10:58:48;5.20;99.90
67273;DHT22;54190;49.770;9.250;2023-12-20T11:01:14;5.30;99.90
67273;DHT22;54190;49.770;9.250;2023-12-20T11:03:51;5.30;99.90
67273;DHT22;54190;49.770;9.250;2023-12-20T11:14:16;5.40;99.90
67273;DHT22;54190;49.770;9.250;2023-12-20T11:16:44;5.30;99.90
67273;DHT22;54190;49.770;9.250;2023-12-20T11:19:11;5.30;99.90
67273;DHT22;54190;49.770;9.250;2023-12-20T11:21:40;5.30;99.90
67273;DHT22;54190;49.770;9.250;2023-12-20T11:24:06;5.30;99.90
67273;DHT22;54190;49.770;9.250;2023-12-20T11:26:31;5.30;99.90
67273;DHT22;54190;49.770;9.250;2023-12-20T11:29:34;5.30;99.90
67273;DHT22;54190;49.770;9.250;2023-12-20T11:32:28;5.30;99.90
67273;DHT22;54190;49.770;9.250;2023-12-20T11:34:47;5.30;99.90
67273;DHT22;54190;49.770;9.250;2023-12-20T11:37:13;5.30;99.90
67273;DHT22;54190;49.770;9.250;2023-12-20T11:39:38;5.30;99.90
67273;DHT22;54190;49.770;9.250;2023-12-20T11:42:05;5.30;99.90
67273;DHT22;54190;49.770;9.250;2023-12-20T11:44:31;5.30;99.90
67273;DHT22;54190;49.770;9.250;2023-12-20T11:46:58;5.30;99.90
67273;DHT22;54190;49.770;9.250;2023-12-20T11:49:24;5.30;99.90
67273;DHT22;54190;49.770;9.250;2023-12-20T11:51:50;5.30;99.90
67273;DHT22;54190;49.770;9.250;2023-12-20T11:54:16;5.40;99.90
67273;DHT22;54190;49.770;9.250;2023-12-20T11:56:42;5.40;99.90
67273;DHT22;54190;49.770;9.250;2023-12-20T11:59:08;5.40;99.90
67273;DHT22;54190;49.770;9.250;2023-12-20T12:01:34;5.50;99.90
67273;DHT22;54190;49.770;9.250;2023-12-20T12:04:05;5.50;99.90
67273;DHT22;54190;49.770;9.250;2023-12-20T12:06:30;5.50;99.90
67273;DHT22;54190;49.770;9.250;2023-12-20T12:08:56;5.50;99.90
67273;DHT22;54190;49.770;9.250;2023-12-20T12:11:22;5.50;99.90
67273;DHT22;54190;49.770;9.250;2023-12-20T12:13:48;5.40;99.90
67273;DHT22;54190;49.770;9.250;2023-12-20T12:16:20;5.50;99.90
67273;DHT22;54190;49.770;9.250;2023-12-20T12:18:46;5.50;99.90
67273;DHT22;54190;49.770;9.250;2023-12-20T12:21:20;5.50;99.90
67273;DHT22;54190;49.770;9.250;2023-12-20T12:23:46;5.50;99.90
67273;DHT22;54190;49.770;9.250;2023-12-20T12:26:12;5.50;99.90
67273;DHT22;54190;49.770;9.250;2023-12-20T12:28:40;5.40;99.90
67273;DHT22;54190;49.770;9.250;2023-12-20T12:31:07;5.40;99.90
67273;DHT22;54190;49.770;9.250;2023-12-20T12:33:33;5.40;99.90
67273;DHT22;54190;49.770;9.250;2023-12-20T12:36:03;5.40;99.90
67273;DHT22;54190;49.770;9.250;2023-12-20T12:38:30;5.40;99.90
67273;DHT22;54190;49.770;9.250;2023-12-20T12:40:56;5.50;99.90
67273;DHT22;54190;49.770;9.250;2023-12-20T12:43:22;5.40;99.90
67273;DHT22;54190;49.770;9.250;2023-12-20T12:45:48;5.40;99.90
67273;DHT22;54190;49.770;9.250;2023-12-20T12:48:14;5.40;99.90
67273;DHT22;54190;49.770;9.250;2023-12-20T12:50:40;5.40;99.90
67273;DHT22;54190;49.770;9.250;2023-12-20T12:53:05;5.50;99.90
67273;DHT22;54190;49.770;9.250;2023-12-20T12:55:31;5.50;99.90
67273;DHT22;54190;49.770;9.250;2023-12-20T12:57:57;5.50;99.90
67273;DHT22;54190;49.770;9.250;2023-12-20T13:00:22;5.50;99.90
67273;DHT22;54190;49.770;9.250;2023-12-20T13:02:49;5.40;99.90
67273;DHT22;54190;49.770;9.250;2023-12-20T13:05:15;5.50;99.90
67273;DHT22;54190;49.770;9.250;2023-12-20T13:07:41;5.40;99.90
67273;DHT22;54190;49.770;9.250;2023-12-20T13:10:06;5.40;99.90
67273;DHT22;54190;49.770;9.250;2023-12-20T13:12:32;5.40;99.90
67273;DHT22;54190;49.770;9.250;2023-12-20T13:14:58;5.40;99.90
67273;DHT22;54190;49.770;9.250;2023-12-20T13:17:23;5.40;99.90
67273;DHT22;54190;49.770;9.250;2023-12-20T13:19:49;5.40;99.90
67273;DHT22;54190;49.770;9.250;2023-12-20T13:22:15;5.50;99.90
67273;DHT22;54190;49.770;9.250;2023-12-20T13:24:41;5.40;99.90
67273;DHT22;54190;49.770;9.250;2023-12-20T13:27:09;5.40;99.90
67273;DHT22;54190;49.770;9.250;2023-12-20T13:29:35;5.40;99.90
67273;DHT22;54190;49.770;9.250;2023-12-20T13:32:01;5.40;99.90
67273;DHT22;54190;49.770;9.250;2023-12-20T13:34:27;5.40;99.90
67273;DHT22;54190;49.770;9.250;2023-12-20T13:36:52;5.40;99.90
67273;DHT22;54190;49.770;9.250;2023-12-20T13:39:18;5.40;99.90
67273;DHT22;54190;49.770;9.250;2023-12-20T13:41:43;5.40;99.90
67273;DHT22;54190;49.770;9.250;2023-12-20T13:44:09;5.40;99.90
67273;DHT22;54190;49.770;9.250;2023-12-20T13:46:35;5.40;99.90
67273;DHT22;54190;49.770;9.250;2023-12-20T13:49:01;5.40;99.90
67273;DHT22;54190;49.770;9.250;2023-12-20T13:51:27;5.40;99.90
67273;DHT22;54190;49.770;9.250;2023-12-20T13:53:52;5.40;99.90
67273;DHT22;54190;49.770;9.250;2023-12-20T13:56:18;5.40;99.90
67273;DHT22;54190;49.770;9.250;2023-12-20T13:58:45;5.40;99.90
67273;DHT22;54190;49.770;9.250;2023-12-20T14:01:12;5.40;99.90
67273;DHT22;54190;49.770;9.250;2023-12-20T14:03:38;5.40;99.90
67273;DHT22;54190;49.770;9.250;2023-12-20T14:06:03;5.40;99.90
67273;DHT22;54190;49.770;9.250;2023-12-20T14:08:29;5.40;99.90
67273;DHT22;54190;49.770;9.250;2023-12-20T14:10:55;5.40;99.90
67273;DHT22;54190;49.770;9.250;2023-12-20T14:13:20;5.40;99.90
67273;DHT22;54190;49.770;9.250;2023-12-20T14:15:46;5.40;99.90
67273;DHT22;54190;49.770;9.250;2023-12-20T14:18:13;5.40;99.90
67273;DHT22;54190;49.770;9.250;2023-12-20T14:20:40;5.50;99.90
67273;DHT22;54190;49.770;9.250;2023-12-20T14:23:08;5.50;99.90
67273;DHT22;54190;49.770;9.250;2023-12-20T14:25:35;5.50;99.90
67273;DHT22;54190;49.770;9.250;2023-12-20T14:28:03;5.50;99.90
67273;DHT22;54190;49.770;9.250;2023-12-20T14:30:29;5.60;99.90
67273;DHT22;54190;49.770;9.250;2023-12-20T14:32:54;5.50;99.90
67273;DHT22;54190;49.770;9.250;2023-12-20T14:35:20;5.50;99.90
67273;DHT22;54190;49.770;9.250;2023-12-20T14:37:46;5.50;99.90
67273;DHT22;54190;49.770;9.250;2023-12-20T14:40:11;5.50;99.90
67273;DHT22;54190;49.770;9.250;2023-12-20T14:42:41;5.40;99.90
67273;DHT22;54190;49.770;9.250;2023-12-20T14:45:07;5.40;99.90
67273;DHT22;54190;49.770;9.250;2023-12-20T14:47:33;5.40;99.90
67273;DHT22;54190;49.770;9.250;2023-12-20T14:49:59;5.40;99.90
67273;DHT22;54190;49.770;9.250;2023-12-20T14:52:24;5.40;99.90
67273;DHT22;54190;49.770;9.250;2023-12-20T14:54:50;5.40;99.90
67273;DHT22;54190;49.770;9.250;2023-12-20T14:57:15;5.40;99.90
67273;DHT22;54190;49.770;9.250;2023-12-20T14:59:41;5.40;99.90
67273;DHT22;54190;49.770;9.250;2023-12-20T15:02:09;5.30;99.90
67273;DHT22;54190;49.770;9.250;2023-12-20T15:04:34;5.30;99.90
67273;DHT22;54190;49.770;9.250;2023-12-20T15:07:00;5.30;99.90
67273;DHT22;54190;49.770;9.250;2023-12-20T15:09:26;5.30;99.90
67273;DHT22;54190;49.770;9.250;2023-12-20T15:11:53;5.30;99.90
67273;DHT22;54190;49.770;9.250;2023-12-20T15:14:18;5.30;99.90
67273;DHT22;54190;49.770;9.250;2023-12-20T15:16:47;5.30;99.90
67273;DHT22;54190;49.770;9.250;2023-12-20T15:19:13;5.30;99.90
67273;DHT22;54190;49.770;9.250;2023-12-20T15:21:39;5.30;99.90
67273;DHT22;54190;49.770;9.250;2023-12-20T15:24:11;5.30;99.90
67273;DHT22;54190;49.770;9.250;2023-12-20T15:26:53;5.30;99.90
67273;DHT22;54190;49.770;9.250;2023-12-20T15:29:19;5.20;99.90
67273;DHT22;54190;49.770;9.250;2023-12-20T15:31:46;5.30;99.90
67273;DHT22;54190;49.770;9.250;2023-12-20T15:34:12;5.30;99.90
67273;DHT22;54190;49.770;9.250;2023-12-20T15:36:39;5.30;99.90
67273;DHT22;54190;49.770;9.250;2023-12-20T15:39:05;5.30;99.90
67273;DHT22;54190;49.770;9.250;2023-12-20T15:41:33;5.30;99.90
67273;DHT22;54190;49.770;9.250;2023-12-20T15:43:59;5.30;99.90
67273;DHT22;54190;49.770;9.250;2023-12-20T15:46:25;5.30;99.90
67273;DHT22;54190;49.770;9.250;2023-12-20T15:48:50;5.30;99.90
67273;DHT22;54190;49.770;9.250;2023-12-20T15:51:20;5.30;99.90
67273;DHT22;54190;49.770;9.250;2023-12-20T15:53:46;5.30;99.90
67273;DHT22;54190;49.770;9.250;2023-12-20T15:56:12;5.30;99.90
67273;DHT22;54190;49.770;9.250;2023-12-20T15:58:37;5.30;99.90
67273;DHT22;54190;49.770;9.250;2023-12-20T16:01:03;5.30;99.90
67273;DHT22;54190;49.770;9.250;2023-12-20T16:03:29;5.30;99.90
67273;DHT22;54190;49.770;9.250;2023-12-20T16:05:55;5.30;99.90
67273;DHT22;54190;49.770;9.250;2023-12-20T16:08:21;5.30;99.90
67273;DHT22;54190;49.770;9.250;2023-12-20T16:10:46;5.30;99.90
67273;DHT22;54190;49.770;9.250;2023-12-20T16:13:12;5.30;99.90
67273;DHT22;54190;49.770;9.250;2023-12-20T16:15:38;5.30;99.90
67273;DHT22;54190;49.770;9.250;2023-12-20T16:18:03;5.30;99.90
67273;DHT22;54190;49.770;9.250;2023-12-20T16:20:34;5.30;99.90
67273;DHT22;54190;49.770;9.250;2023-12-20T16:23:00;5.30;99.90
67273;DHT22;54190;49.770;9.250;2023-12-20T16:25:25;5.30;99.90
67273;DHT22;54190;49.770;9.250;2023-12-20T16:27:51;5.30;99.90
67273;DHT22;54190;49.770;9.250;2023-12-20T16:30:17;5.30;99.90
67273;DHT22;54190;49.770;9.250;2023-12-20T16:32:42;5.30;99.90
67273;DHT22;54190;49.770;9.250;2023-12-20T16:35:08;5.30;99.90
67273;DHT22;54190;49.770;9.250;2023-12-20T16:37:34;5.30;99.90
67273;DHT22;54190;49.770;9.250;2023-12-20T16:40:05;5.30;99.90
67273;DHT22;54190;49.770;9.250;2023-12-20T16:42:31;5.30;99.90
67273;DHT22;54190;49.770;9.250;2023-12-20T16:44:56;5.30;99.90
67273;DHT22;54190;49.770;9.250;2023-12-20T16:47:22;5.30;99.90
67273;DHT22;54190;49.770;9.250;2023-12-20T16:49:47;5.30;99.90
67273;DHT22;54190;49.770;9.250;2023-12-20T16:52:13;5.30;99.90
67273;DHT22;54190;49.770;9.250;2023-12-20T16:54:39;5.30;99.90
67273;DHT22;54190;49.770;9.250;2023-12-20T16:57:05;5.30;99.90
67273;DHT22;54190;49.770;9.250;2023-12-20T16:59:30;5.30;99.90
67273;DHT22;54190;49.770;9.250;2023-12-20T17:01:56;5.30;99.90
67273;DHT22;54190;49.770;9.250;2023-12-20T17:04:22;5.30;99.90
67273;DHT22;54190;49.770;9.250;2023-12-20T17:06:49;5.30;99.90
67273;DHT22;54190;49.770;9.250;2023-12-20T17:09:15;5.30;99.90
67273;DHT22;54190;49.770;9.250;2023-12-20T17:11:42;5.30;99.90
67273;DHT22;54190;49.770;9.250;2023-12-20T17:14:07;5.30;99.90
67273;DHT22;54190;49.770;9.250;2023-12-20T17:16:36;5.30;99.90
67273;DHT22;54190;49.770;9.250;2023-12-20T17:19:02;5.30;99.90
67273;DHT22;54190;49.770;9.250;2023-12-20T17:21:32;5.40;99.90
67273;DHT22;54190;49.770;9.250;2023-12-20T17:23:58;5.40;99.90
67273;DHT22;54190;49.770;9.250;2023-12-20T17:26:24;5.40;99.90
67273;DHT22;54190;49.770;9.250;2023-12-20T17:28:50;5.40;99.90
67273;DHT22;54190;49.770;9.250;2023-12-20T17:31:16;5.40;99.90
67273;DHT22;54190;49.770;9.250;2023-12-20T17:33:42;5.40;99.90
67273;DHT22;54190;49.770;9.250;2023-12-20T17:36:08;5.40;99.90
67273;DHT22;54190;49.770;9.250;2023-12-20T17:38:33;5.40;99.90
67273;DHT22;54190;49.770;9.250;2023-12-20T17:41:02;5.40;99.90
67273;DHT22;54190;49.770;9.250;2023-12-20T17:43:29;5.40;99.90
67273;DHT22;54190;49.770;9.250;2023-12-20T17:45:54;5.40;99.90
67273;DHT22;54190;49.770;9.250;2023-12-20T17:48:20;5.40;99.90
67273;DHT22;54190;49.770;9.250;2023-12-20T17:50:47;5.40;99.90
67273;DHT22;54190;49.770;9.250;2023-12-20T17:53:13;5.40;99.90
67273;DHT22;54190;49.770;9.250;2023-12-20T17:55:38;5.40;99.90
67273;DHT22;54190;49.770;9.250;2023-12-20T17:58:04;5.40;99.90
67273;DHT22;54190;49.770;9.250;2023-12-20T18:00:33;5.50;99.90
67273;DHT22;54190;49.770;9.250;2023-12-20T18:02:59;5.50;99.90
67273;DHT22;54190;49.770;9.250;2023-12-20T18:05:25;5.50;99.90
67273;DHT22;54190;49.770;9.250;2023-12-20T18:07:50;5.50;99.90
67273;DHT22;54190;49.770;9.250;2023-12-20T18:10:18;5.50;99.90
